Time;durP1;ratioP1;P1;durP2;ratioP2;P2;SDS_P1;SDS_P2;PMS_P1;PMS_P2;Temp;Humidity;BMP_temperature;BMP_pressure;BME280_temperature;BME280_humidity;BME280_pressure;Samples;Min_cycle;Max_cycle;Signal;HPM_P1;HPM_P2
2021/05/04 07:00:20;;;;;;;3.65;1.20;;;;;;;;;;10736388;27;20030;-84
2021/05/04 07:05:21;;;;;;;6.50;0.98;;;;;;;;;;10700030;27;20080;-86
2021/05/04 07:10:53;;;;;;;4.75;1.27;;;;;;;;;;10628939;27;20037;-86
2021/05/04 07:21:38;;;;;;;2.38;0.80;;;;;;;;;;10660537;27;20049;-84
2021/05/04 07:26:42;;;;;;;1.55;0.90;;;;;;;;;;10625926;27;20035;-84
2021/05/04 07:32:08;;;;;;;4.18;0.80;;;;;;;;;;10631105;22;20039;-85
2021/05/04 07:37:13;;;;;;;1.98;0.90;;;;;;;;;;10646368;27;20053;-86
2021/05/04 08:10:34;;;;;;;1.25;0.60;;;;;;;;;;10432310;28;20033;-85
2021/05/04 08:16:06;;;;;;;3.05;0.60;;;;;;;;;;10450344;28;20039;-85
2021/05/04 08:26:51;;;;;;;2.90;0.73;;;;;;;;;;10436716;28;20022;-87
2021/05/04 08:31:52;;;;;;;2.97;0.55;;;;;;;;;;10558762;28;20040;-85
2021/05/04 08:36:54;;;;;;;3.38;0.75;;;;;;;;;;10581870;28;20087;-84
2021/05/04 08:41:56;;;;;;;2.35;0.70;;;;;;;;;;10583269;28;20118;-84
2021/05/04 08:47:29;;;;;;;1.27;0.70;;;;;;;;;;10584586;28;20039;-85
2021/05/04 08:58:00;;;;;;;0.80;0.60;;;;;;;;;;10599484;28;20055;-84
2021/05/04 09:03:14;;;;;;;3.60;0.90;;;;;;;;;;10579790;28;20031;-84
2021/05/04 09:08:57;;;;;;;2.70;0.90;;;;;;;;;;10479676;28;20033;-85
2021/05/04 09:20:00;;;;;;;3.90;0.80;;;;;;;;;;10502957;28;20029;-85
2021/05/04 09:25:27;;;;;;;1.63;0.68;;;;;;;;;;10515810;28;20032;-85
2021/05/04 09:30:28;;;;;;;1.77;0.80;;;;;;;;;;10574983;28;20027;-85
2021/05/04 09:35:30;;;;;;;3.72;1.08;;;;;;;;;;10560086;28;20048;-86
2021/05/04 09:40:37;;;;;;;4.43;1.02;;;;;;;;;;10576410;28;20056;-85
2021/05/04 09:45:58;;;;;;;2.63;0.73;;;;;;;;;;10598197;28;20015;-85
2021/05/04 09:51:05;;;;;;;2.45;0.90;;;;;;;;;;10575615;28;20032;-86
2021/05/04 09:56:06;;;;;;;2.60;1.00;;;;;;;;;;10577517;28;20024;-86
2021/05/04 10:01:12;;;;;;;3.75;0.90;;;;;;;;;;10577313;28;20035;-86
2021/05/04 10:06:14;;;;;;;2.67;0.90;;;;;;;;;;10575964;28;20064;-83
2021/05/04 10:11:20;;;;;;;2.30;0.60;;;;;;;;;;10576673;28;20019;-82
2021/05/04 10:16:22;;;;;;;2.38;1.00;;;;;;;;;;10577542;28;20031;-83
2021/05/04 10:21:25;;;;;;;3.83;1.13;;;;;;;;;;10599455;28;20073;-87
2021/05/04 10:26:27;;;;;;;2.22;0.90;;;;;;;;;;10578780;28;20059;-85
2021/05/04 10:31:35;;;;;;;5.18;1.50;;;;;;;;;;10578214;28;20067;-85
2021/05/04 10:36:36;;;;;;;3.10;1.15;;;;;;;;;;10579264;28;20024;-84
2021/05/04 10:41:58;;;;;;;3.08;0.85;;;;;;;;;;10585730;28;20059;-85
2021/05/04 10:46:59;;;;;;;3.65;1.20;;;;;;;;;;10589207;28;20027;-85
2021/05/04 10:52:00;;;;;;;2.60;1.10;;;;;;;;;;10588678;28;20076;-86
2021/05/04 10:57:02;;;;;;;3.70;1.08;;;;;;;;;;10593631;28;20103;-86
2021/05/04 11:02:18;;;;;;;3.65;1.15;;;;;;;;;;10612602;27;20050;-84
2021/05/04 11:07:38;;;;;;;3.40;1.20;;;;;;;;;;10613164;28;20032;-85
2021/05/04 11:12:39;;;;;;;6.13;1.30;;;;;;;;;;10590915;28;20043;-84
2021/05/04 11:17:43;;;;;;;5.10;1.65;;;;;;;;;;10580597;28;20028;-85
2021/05/04 11:22:44;;;;;;;4.88;1.33;;;;;;;;;;10578640;28;20027;-84
2021/05/04 11:27:55;;;;;;;3.10;1.30;;;;;;;;;;10583237;28;20027;-86
2021/05/04 11:32:58;;;;;;;4.65;1.50;;;;;;;;;;10581144;28;20096;-86
2021/05/04 11:37:59;;;;;;;4.10;1.65;;;;;;;;;;10581716;28;20110;-84
2021/05/04 11:43:02;;;;;;;5.15;1.50;;;;;;;;;;10583023;28;20031;-84
2021/05/04 11:48:04;;;;;;;5.10;1.50;;;;;;;;;;10582927;28;20028;-83
2021/05/04 11:53:09;;;;;;;4.05;1.60;;;;;;;;;;10596588;28;20049;-84
2021/05/04 11:58:18;;;;;;;4.45;1.10;;;;;;;;;;10578853;28;20489;-84
2021/05/04 12:03:19;;;;;;;4.20;1.50;;;;;;;;;;10578322;28;20027;-83
2021/05/04 12:08:20;;;;;;;3.60;1.33;;;;;;;;;;10577779;28;20470;-83
2021/05/04 12:13:23;;;;;;;4.30;1.20;;;;;;;;;;10586044;28;20027;-82
2021/05/04 12:18:30;;;;;;;4.78;1.50;;;;;;;;;;10603550;28;20026;-84
2021/05/04 12:23:36;;;;;;;4.22;1.25;;;;;;;;;;10580338;28;20082;-84
2021/05/04 12:28:38;;;;;;;6.32;1.30;;;;;;;;;;10597695;28;20116;-84
2021/05/04 12:33:40;;;;;;;2.90;1.20;;;;;;;;;;10579619;28;20031;-84
2021/05/04 12:38:54;;;;;;;3.80;1.58;;;;;;;;;;10597021;28;20504;-82
2021/05/04 12:44:12;;;;;;;5.97;1.50;;;;;;;;;;10579434;28;20028;-83
2021/05/04 12:49:13;;;;;;;5.53;1.27;;;;;;;;;;10581206;28;20026;-84
2021/05/04 12:54:18;;;;;;;2.58;1.10;;;;;;;;;;10601009;28;20039;-83
2021/05/04 12:59:29;;;;;;;4.65;1.30;;;;;;;;;;10581894;28;20020;-84
2021/05/04 13:04:59;;;;;;;4.05;1.20;;;;;;;;;;10580837;28;20055;-84
2021/05/04 13:10:11;;;;;;;5.32;1.50;;;;;;;;;;10578603;28;20366;-83
2021/05/04 13:30:52;;;;;;;4.40;1.10;;;;;;;;;;10601215;28;20036;-81
2021/05/04 13:36:05;;;;;;;6.03;1.20;;;;;;;;;;10577168;28;20031;-82
2021/05/04 13:51:46;;;;;;;5.50;1.35;;;;;;;;;;10603342;28;20087;-82
2021/05/04 13:56:47;;;;;;;3.58;1.10;;;;;;;;;;10583192;28;20042;-84
2021/05/04 14:01:57;;;;;;;4.28;1.30;;;;;;;;;;10584273;28;20084;-84
2021/05/04 14:27:58;;;;;;;2.95;1.00;;;;;;;;;;10610474;28;20473;-83
2021/05/04 14:32:59;;;;;;;2.03;1.02;;;;;;;;;;10572034;28;20032;-83
2021/05/04 14:55:31;;;;;;;3.25;1.10;;;;;;;;;;10602999;28;20031;-84
2021/05/04 15:04:11;;;;;;;3.67;1.05;;;;;;;;;;10619881;28;20027;-83
2021/05/04 15:09:12;;;;;;;4.63;0.90;;;;;;;;;;10595516;28;20028;-81
2021/05/04 15:24:37;;;;;;;3.28;1.20;;;;;;;;;;10608643;28;20044;-81
2021/05/04 15:29:41;;;;;;;4.53;1.20;;;;;;;;;;10595120;28;20024;-84
2021/05/04 15:34:46;;;;;;;3.28;1.23;;;;;;;;;;10610954;28;20055;-83
2021/05/04 15:39:49;;;;;;;4.45;1.00;;;;;;;;;;10575991;28;20063;-83
2021/05/04 15:44:57;;;;;;;1.88;0.80;;;;;;;;;;10604078;28;20073;-81
2021/05/04 15:50:07;;;;;;;3.38;0.90;;;;;;;;;;10603219;28;20120;-81
2021/05/04 16:00:57;;;;;;;;;;;;;;;;;;10602081;28;20023;-80
2021/05/04 16:11:18;;;;;;;2.88;0.75;;;;;;;;;;10611480;28;20031;-82
2021/05/04 16:16:20;;;;;;;2.75;0.90;;;;;;;;;;10595131;28;20031;-85
2021/05/04 16:32:50;;;;;;;;;;;;;;;;;;;;;
2021/05/04 16:38:49;;;;;;;3.28;1.17;;;;;;;;;;10446847;28;20032;-86
2021/05/04 16:49:49;;;;;;;3.13;1.42;;;;;;;;;;10272583;29;20039;-85
2021/05/04 17:01:19;;;;;;;3.92;1.23;;;;;;;;;;10192518;29;20044;-85
2021/05/04 17:12:14;;;;;;;4.43;1.40;;;;;;;;;;10139682;28;20043;-84
